IFA weather

Public forecast

Using degrees Fahrenheit for public forecast. Weather courtesy of forecast.io.

Current aviation weather report (METAR) for Iowa Falls Municipal Airport

Retrieved 2020/08/14 14:35 UTC (0 seconds ago):

KIFA 141435Z AUTO 16005KT 10SM CLR 25/20 A3003 RMK AO2 T02490201

Closest aviation forecast (TAF) to Iowa Falls Municipal Airport

Closest forecast is Waterloo Regional Airport, 38.8 nm (71.9 km) E. Retrieved 2020/08/14 12:22 UTC (2 hours ago):

TAF KALO 141120Z 1412/1512 10004KT P6SM BKN029 FM141300 10004KT P6SM SCT100 FM150400 VRB03KT 6SM SHRA BR VCTS BKN150CB FM150700 31008KT P6SM BKN060